sensor_id;sensor_type;location;lat;lon;timestamp;pressure;altitude;pressure_sealevel;temperature
34125;BMP280;20110;53.120;5.786;2022-09-09T00:02:22;100736.34;;;20.29
34125;BMP280;20110;53.120;5.786;2022-09-09T00:05:22;100752.13;;;20.44
34125;BMP280;20110;53.120;5.786;2022-09-09T00:07:55;100713.97;;;20.27
34125;BMP280;20110;53.120;5.786;2022-09-09T00:10:34;100739.91;;;20.43
34125;BMP280;20110;53.120;5.786;2022-09-09T00:13:16;100739.91;;;20.43
34125;BMP280;20110;53.120;5.786;2022-09-09T00:16:10;100740.63;;;20.44
34125;BMP280;20110;53.120;5.786;2022-09-09T00:19:07;100715.03;;;20.33
34125;BMP280;20110;53.120;5.786;2022-09-09T00:22:17;100731.81;;;20.43
34125;BMP280;20110;53.120;5.786;2022-09-09T00:24:48;100729.47;;;20.38
34125;BMP280;20110;53.120;5.786;2022-09-09T00:32:53;100725.22;;;20.23
34125;BMP280;20110;53.120;5.786;2022-09-09T00:35:29;100707.19;;;20.04
34125;BMP280;20110;53.120;5.786;2022-09-09T00:38:09;100719.66;;;20.09
34125;BMP280;20110;53.120;5.786;2022-09-09T00:40:52;100722.22;;;20.07
34125;BMP280;20110;53.120;5.786;2022-09-09T00:43:30;100725.34;;;20.04
34125;BMP280;20110;53.120;5.786;2022-09-09T00:49:19;100719.97;;;20.04
34125;BMP280;20110;53.120;5.786;2022-09-09T00:58:02;100721.69;;;20.21
34125;BMP280;20110;53.120;5.786;2022-09-09T01:01:03;100712.28;;;20.10
34125;BMP280;20110;53.120;5.786;2022-09-09T01:03:42;100714.66;;;20.16
34125;BMP280;20110;53.120;5.786;2022-09-09T01:06:35;100692.34;;;20.03
34125;BMP280;20110;53.120;5.786;2022-09-09T01:11:59;100723.94;;;20.36
34125;BMP280;20110;53.120;5.786;2022-09-09T01:17:31;100725.97;;;20.47
34125;BMP280;20110;53.120;5.786;2022-09-09T01:28:49;100705.94;;;20.50
34125;BMP280;20110;53.120;5.786;2022-09-09T01:31:41;100708.63;;;20.50
34125;BMP280;20110;53.120;5.786;2022-09-09T01:34:13;100697.38;;;20.42
34125;BMP280;20110;53.120;5.786;2022-09-09T01:36:57;100708.50;;;20.48
34125;BMP280;20110;53.120;5.786;2022-09-09T01:39:25;100687.38;;;20.44
34125;BMP280;20110;53.120;5.786;2022-09-09T01:41:52;100704.78;;;20.53
34125;BMP280;20110;53.120;5.786;2022-09-09T01:44:19;100699.94;;;20.51
34125;BMP280;20110;53.120;5.786;2022-09-09T01:46:45;100685.16;;;20.41
34125;BMP280;20110;53.120;5.786;2022-09-09T01:49:11;100698.06;;;20.42
34125;BMP280;20110;53.120;5.786;2022-09-09T01:51:39;100701.81;;;20.49
34125;BMP280;20110;53.120;5.786;2022-09-09T01:54:07;100694.19;;;20.45
34125;BMP280;20110;53.120;5.786;2022-09-09T02:02:34;100676.59;;;20.33
34125;BMP280;20110;53.120;5.786;2022-09-09T02:08:09;100686.41;;;20.40
34125;BMP280;20110;53.120;5.786;2022-09-09T02:10:55;100701.91;;;20.51
34125;BMP280;20110;53.120;5.786;2022-09-09T02:13:22;100699.22;;;20.51
34125;BMP280;20110;53.120;5.786;2022-09-09T02:15:57;100690.31;;;20.48
34125;BMP280;20110;53.120;5.786;2022-09-09T02:18:44;100675.19;;;20.43
34125;BMP280;20110;53.120;5.786;2022-09-09T02:21:13;100695.38;;;20.66
34125;BMP280;20110;53.120;5.786;2022-09-09T02:23:42;100691.16;;;20.63
34125;BMP280;20110;53.120;5.786;2022-09-09T02:26:11;100703.13;;;20.71
34125;BMP280;20110;53.120;5.786;2022-09-09T02:28:41;100693.38;;;20.66
34125;BMP280;20110;53.120;5.786;2022-09-09T02:31:07;100667.72;;;20.54
34125;BMP280;20110;53.120;5.786;2022-09-09T02:33:41;100686.59;;;20.54
34125;BMP280;20110;53.120;5.786;2022-09-09T02:36:10;100691.16;;;20.63
34125;BMP280;20110;53.120;5.786;2022-09-09T02:38:45;100680.00;;;20.57
34125;BMP280;20110;53.120;5.786;2022-09-09T02:41:11;100677.53;;;20.61
34125;BMP280;20110;53.120;5.786;2022-09-09T02:43:37;100657.84;;;20.46
34125;BMP280;20110;53.120;5.786;2022-09-09T02:46:43;100697.84;;;20.73
34125;BMP280;20110;53.120;5.786;2022-09-09T02:52:04;100673.22;;;20.56
34125;BMP280;20110;53.120;5.786;2022-09-09T02:54:37;100628.47;;;20.18
34125;BMP280;20110;53.120;5.786;2022-09-09T02:57:27;100694.78;;;20.56
34125;BMP280;20110;53.120;5.786;2022-09-09T02:59:57;100658.41;;;20.33
34125;BMP280;20110;53.120;5.786;2022-09-09T03:02:23;100696.53;;;20.51
34125;BMP280;20110;53.120;5.786;2022-09-09T03:04:51;100683.63;;;20.38
34125;BMP280;20110;53.120;5.786;2022-09-09T03:07:20;100683.97;;;20.32
34125;BMP280;20110;53.120;5.786;2022-09-09T03:09:46;100704.28;;;20.45
34125;BMP280;20110;53.120;5.786;2022-09-09T03:12:13;100701.69;;;20.47
34125;BMP280;20110;53.120;5.786;2022-09-09T03:14:39;100691.59;;;20.47
34125;BMP280;20110;53.120;5.786;2022-09-09T03:17:05;100700.09;;;20.54
34125;BMP280;20110;53.120;5.786;2022-09-09T03:19:32;100680.56;;;20.43
34125;BMP280;20110;53.120;5.786;2022-09-09T03:21:58;100656.03;;;20.28
34125;BMP280;20110;53.120;5.786;2022-09-09T03:24:24;100689.03;;;20.49
34125;BMP280;20110;53.120;5.786;2022-09-09T03:26:50;100687.72;;;20.50
34125;BMP280;20110;53.120;5.786;2022-09-09T03:29:17;100690.31;;;20.48
34125;BMP280;20110;53.120;5.786;2022-09-09T03:31:44;100701.47;;;20.55
34125;BMP280;20110;53.120;5.786;2022-09-09T03:34:10;100684.13;;;20.46
34125;BMP280;20110;53.120;5.786;2022-09-09T03:36:37;100675.19;;;20.43
34125;BMP280;20110;53.120;5.786;2022-09-09T03:39:03;100681.19;;;20.54
34125;BMP280;20110;53.120;5.786;2022-09-09T03:41:30;100669.69;;;20.41
34125;BMP280;20110;53.120;5.786;2022-09-09T03:43:56;100670.03;;;20.47
34125;BMP280;20110;53.120;5.786;2022-09-09T03:46:24;100681.66;;;20.62
34125;BMP280;20110;53.120;5.786;2022-09-09T03:48:51;100681.78;;;20.64
34125;BMP280;20110;53.120;5.786;2022-09-09T03:51:18;100672.50;;;20.55
34125;BMP280;20110;53.120;5.786;2022-09-09T03:53:44;100681.88;;;20.66
34125;BMP280;20110;53.120;5.786;2022-09-09T03:56:10;100645.25;;;20.39
34125;BMP280;20110;53.120;5.786;2022-09-09T03:58:37;100682.09;;;20.70
34125;BMP280;20110;53.120;5.786;2022-09-09T04:01:07;100649.16;;;20.48
34125;BMP280;20110;53.120;5.786;2022-09-09T04:03:34;100688.13;;;20.68
34125;BMP280;20110;53.120;5.786;2022-09-09T04:06:03;100660.75;;;20.50
34125;BMP280;20110;53.120;5.786;2022-09-09T04:08:29;100684.81;;;20.70
34125;BMP280;20110;53.120;5.786;2022-09-09T04:10:59;100685.28;;;20.66
34125;BMP280;20110;53.120;5.786;2022-09-09T04:13:26;100670.63;;;20.58
34125;BMP280;20110;53.120;5.786;2022-09-09T04:16:00;100684.22;;;20.71
34125;BMP280;20110;53.120;5.786;2022-09-09T04:18:27;100635.34;;;20.42
34125;BMP280;20110;53.120;5.786;2022-09-09T04:20:57;100681.22;;;20.77
34125;BMP280;20110;53.120;5.786;2022-09-09T04:23:25;100640.97;;;20.46
34125;BMP280;20110;53.120;5.786;2022-09-09T04:25:54;100675.81;;;20.65
34125;BMP280;20110;53.120;5.786;2022-09-09T04:28:23;100681.53;;;20.71
34125;BMP280;20110;53.120;5.786;2022-09-09T04:30:50;100676.97;;;20.74
34125;BMP280;20110;53.120;5.786;2022-09-09T04:33:18;100680.25;;;20.72
34125;BMP280;20110;53.120;5.786;2022-09-09T04:35:49;100673.78;;;20.66
34125;BMP280;20110;53.120;5.786;2022-09-09T04:38:16;100663.59;;;20.64
34125;BMP280;20110;53.120;5.786;2022-09-09T04:40:46;100666.75;;;20.61
34125;BMP280;20110;53.120;5.786;2022-09-09T04:43:13;100661.72;;;20.55
34125;BMP280;20110;53.120;5.786;2022-09-09T04:45:41;100664.53;;;20.57
34125;BMP280;20110;53.120;5.786;2022-09-09T04:48:08;100659.84;;;20.58
34125;BMP280;20110;53.120;5.786;2022-09-09T04:50:35;100666.88;;;20.63
34125;BMP280;20110;53.120;5.786;2022-09-09T04:53:05;100666.88;;;20.63
34125;BMP280;20110;53.120;5.786;2022-09-09T04:55:31;100654.44;;;20.58
34125;BMP280;20110;53.120;5.786;2022-09-09T04:57:57;100657.72;;;20.56
34125;BMP280;20110;53.120;5.786;2022-09-09T05:00:24;100666.75;;;20.61
34125;BMP280;20110;53.120;5.786;2022-09-09T05:02:50;100664.06;;;20.61
34125;BMP280;20110;53.120;5.786;2022-09-09T05:05:16;100687.50;;;20.70
34125;BMP280;20110;53.120;5.786;2022-09-09T05:07:44;100666.63;;;20.59
34125;BMP280;20110;53.120;5.786;2022-09-09T05:10:09;100676.25;;;20.73
34125;BMP280;20110;53.120;5.786;2022-09-09T05:12:36;100668.28;;;20.64
34125;BMP280;20110;53.120;5.786;2022-09-09T05:15:02;100649.97;;;20.50
34125;BMP280;20110;53.120;5.786;2022-09-09T05:17:27;100685.41;;;20.80
34125;BMP280;20110;53.120;5.786;2022-09-09T05:19:54;100670.75;;;20.71
34125;BMP280;20110;53.120;5.786;2022-09-09T05:22:20;100665.69;;;20.77
34125;BMP280;20110;53.120;5.786;2022-09-09T05:24:47;100674.84;;;20.84
34125;BMP280;20110;53.120;5.786;2022-09-09T05:27:13;100663.47;;;20.74
34125;BMP280;20110;53.120;5.786;2022-09-09T05:29:39;100674.97;;;20.86
34125;BMP280;20110;53.120;5.786;2022-09-09T05:32:08;100651.16;;;20.71
34125;BMP280;20110;53.120;5.786;2022-09-09T05:34:35;100665.59;;;20.75
34125;BMP280;20110;53.120;5.786;2022-09-09T05:37:03;100656.31;;;20.67
34125;BMP280;20110;53.120;5.786;2022-09-09T05:39:29;100641.19;;;20.50
34125;BMP280;20110;53.120;5.786;2022-09-09T05:41:55;100671.81;;;20.66
34125;BMP280;20110;53.120;5.786;2022-09-09T05:44:21;100678.25;;;20.73
34125;BMP280;20110;53.120;5.786;2022-09-09T05:46:49;100680.13;;;20.70
34125;BMP280;20110;53.120;5.786;2022-09-09T05:49:15;100700.56;;;20.85
34125;BMP280;20110;53.120;5.786;2022-09-09T05:51:41;100686.22;;;20.82
34125;BMP280;20110;53.120;5.786;2022-09-09T05:54:09;100682.72;;;20.80
34125;BMP280;20110;53.120;5.786;2022-09-09T05:56:35;100681.88;;;20.89
34125;BMP280;20110;53.120;5.786;2022-09-09T05:59:08;100697.38;;;21.00
34125;BMP280;20110;53.120;5.786;2022-09-09T06:01:37;100694.31;;;21.17
34125;BMP280;20110;53.120;5.786;2022-09-09T06:04:06;100659.69;;;21.02
34125;BMP280;20110;53.120;5.786;2022-09-09T06:06:36;100673.84;;;21.26
34125;BMP280;20110;53.120;5.786;2022-09-09T06:09:04;100680.19;;;21.30
34125;BMP280;20110;53.120;5.786;2022-09-09T06:11:37;100677.38;;;21.40
34125;BMP280;20110;53.120;5.786;2022-09-09T06:14:04;100690.81;;;21.52
34125;BMP280;20110;53.120;5.786;2022-09-09T06:16:31;100694.91;;;21.53
34125;BMP280;20110;53.120;5.786;2022-09-09T06:18:58;100680.47;;;21.48
34125;BMP280;20110;53.120;5.786;2022-09-09T06:21:34;100669.94;;;21.41
34125;BMP280;20110;53.120;5.786;2022-09-09T06:24:03;100651.75;;;21.29
34125;BMP280;20110;53.120;5.786;2022-09-09T06:26:38;100690.81;;;21.52
34125;BMP280;20110;53.120;5.786;2022-09-09T06:29:07;100689.47;;;21.64
34125;BMP280;20110;53.120;5.786;2022-09-09T06:31:35;100704.25;;;21.75
34125;BMP280;20110;53.120;5.786;2022-09-09T06:34:05;100703.66;;;21.76
34125;BMP280;20110;53.120;5.786;2022-09-09T06:36:35;100675.75;;;21.60
34125;BMP280;20110;53.120;5.786;2022-09-09T06:39:03;100677.16;;;21.61
34125;BMP280;20110;53.120;5.786;2022-09-09T06:41:32;100697.91;;;21.70
34125;BMP280;20110;53.120;5.786;2022-09-09T06:43:58;100700.19;;;21.62
34125;BMP280;20110;53.120;5.786;2022-09-09T06:48:00;100657.72;;;20.44
34125;BMP280;20110;53.120;5.786;2022-09-09T06:54:02;100694.38;;;20.26
34125;BMP280;20110;53.120;5.786;2022-09-09T08:11:25;100678.38;;;22.91
34125;BMP280;20110;53.120;5.786;2022-09-09T08:13:53;100680.44;;;23.49
34125;BMP280;20110;53.120;5.786;2022-09-09T08:16:22;100674.41;;;23.80
34125;BMP280;20110;53.120;5.786;2022-09-09T08:18:49;100693.81;;;24.06
34125;BMP280;20110;53.120;5.786;2022-09-09T08:21:23;100696.81;;;24.27
34125;BMP280;20110;53.120;5.786;2022-09-09T08:23:52;100669.31;;;24.35
34125;BMP280;20110;53.120;5.786;2022-09-09T08:26:21;100684.72;;;24.46
34125;BMP280;20110;53.120;5.786;2022-09-09T08:28:50;100702.47;;;24.65
34125;BMP280;20110;53.120;5.786;2022-09-09T08:31:20;100692.84;;;24.62
34125;BMP280;20110;53.120;5.786;2022-09-09T08:33:47;100680.69;;;24.80
34125;BMP280;20110;53.120;5.786;2022-09-09T08:36:16;100689.31;;;24.75
34125;BMP280;20110;53.120;5.786;2022-09-09T08:38:43;100702.47;;;24.98
34125;BMP280;20110;53.120;5.786;2022-09-09T08:44:28;100706.75;;;25.39
34125;BMP280;20110;53.120;5.786;2022-09-09T08:47:35;100714.44;;;25.62
34125;BMP280;20110;53.120;5.786;2022-09-09T08:53:19;100718.53;;;25.63
34125;BMP280;20110;53.120;5.786;2022-09-09T08:55:58;100700.34;;;25.67
34125;BMP280;20110;53.120;5.786;2022-09-09T08:58:34;100718.41;;;25.79
34125;BMP280;20110;53.120;5.786;2022-09-09T09:04:03;100723.56;;;25.53
34125;BMP280;20110;53.120;5.786;2022-09-09T09:07:08;100705.81;;;25.32
34125;BMP280;20110;53.120;5.786;2022-09-09T09:10:05;100731.91;;;25.39
34125;BMP280;20110;53.120;5.786;2022-09-09T09:12:37;100746.22;;;25.40
34125;BMP280;20110;53.120;5.786;2022-09-09T09:15:19;100747.34;;;25.35
34125;BMP280;20110;53.120;5.786;2022-09-09T09:17:46;100718.44;;;25.25
34125;BMP280;20110;53.120;5.786;2022-09-09T09:20:16;100722.91;;;25.17
34125;BMP280;20110;53.120;5.786;2022-09-09T09:22:54;100727.38;;;25.10
34125;BMP280;20110;53.120;5.786;2022-09-09T09:25:34;100750.25;;;25.39
34125;BMP280;20110;53.120;5.786;2022-09-09T09:28:17;100748.59;;;25.67
34125;BMP280;20110;53.120;5.786;2022-09-09T09:30:54;100749.56;;;25.93
34125;BMP280;20110;53.120;5.786;2022-09-09T09:33:35;100755.56;;;26.09
34125;BMP280;20110;53.120;5.786;2022-09-09T09:36:04;100755.59;;;26.29
34125;BMP280;20110;53.120;5.786;2022-09-09T09:38:36;100737.91;;;26.30
34125;BMP280;20110;53.120;5.786;2022-09-09T09:41:02;100747.16;;;26.41
34125;BMP280;20110;53.120;5.786;2022-09-09T09:43:35;100747.34;;;26.27
34125;BMP280;20110;53.120;5.786;2022-09-09T09:46:03;100762.28;;;26.46
34125;BMP280;20110;53.120;5.786;2022-09-09T09:48:30;100726.22;;;26.26
34125;BMP280;20110;53.120;5.786;2022-09-09T09:51:08;100755.25;;;26.39
34125;BMP280;20110;53.120;5.786;2022-09-09T09:53:38;100767.19;;;26.30
34125;BMP280;20110;53.120;5.786;2022-09-09T09:56:10;100756.09;;;26.24
34125;BMP280;20110;53.120;5.786;2022-09-09T10:01:26;100750.78;;;26.08
34125;BMP280;20110;53.120;5.786;2022-09-09T10:03:58;100748.34;;;26.36
34125;BMP280;20110;53.120;5.786;2022-09-09T10:06:36;100765.97;;;26.54
34125;BMP280;20110;53.120;5.786;2022-09-09T10:09:27;100752.00;;;26.64
34125;BMP280;20110;53.120;5.786;2022-09-09T10:14:58;100756.25;;;26.89
34125;BMP280;20110;53.120;5.786;2022-09-09T10:20:41;100736.94;;;27.26
34125;BMP280;20110;53.120;5.786;2022-09-09T10:29:54;100759.88;;;28.68
34125;BMP280;20110;53.120;5.786;2022-09-09T10:32:49;100761.81;;;28.91
34125;BMP280;20110;53.120;5.786;2022-09-09T10:36:00;100750.13;;;28.33
34125;BMP280;20110;53.120;5.786;2022-09-09T10:38:45;100751.66;;;28.12
34125;BMP280;20110;53.120;5.786;2022-09-09T10:41:42;100756.31;;;28.08
34125;BMP280;20110;53.120;5.786;2022-09-09T10:45:04;100743.88;;;28.28
34125;BMP280;20110;53.120;5.786;2022-09-09T10:48:01;100751.63;;;28.38
34125;BMP280;20110;53.120;5.786;2022-09-09T10:50:53;100744.88;;;28.98
34125;BMP280;20110;53.120;5.786;2022-09-09T10:56:10;100740.03;;;29.96
34125;BMP280;20110;53.120;5.786;2022-09-09T10:58:43;100737.13;;;29.88
34125;BMP280;20110;53.120;5.786;2022-09-09T11:01:29;100728.28;;;29.20
34125;BMP280;20110;53.120;5.786;2022-09-09T11:04:10;100741.66;;;28.76
34125;BMP280;20110;53.120;5.786;2022-09-09T11:06:50;100756.13;;;28.53
34125;BMP280;20110;53.120;5.786;2022-09-09T11:09:26;100751.78;;;28.44
34125;BMP280;20110;53.120;5.786;2022-09-09T11:12:00;100751.19;;;28.47
34125;BMP280;20110;53.120;5.786;2022-09-09T11:17:15;100762.41;;;28.60
34125;BMP280;20110;53.120;5.786;2022-09-09T11:19:44;100742.81;;;28.39
34125;BMP280;20110;53.120;5.786;2022-09-09T11:25:17;100723.13;;;28.45
34125;BMP280;20110;53.120;5.786;2022-09-09T11:34:47;100752.75;;;29.82
34125;BMP280;20110;53.120;5.786;2022-09-09T11:37:42;100761.53;;;30.54
34125;BMP280;20110;53.120;5.786;2022-09-09T11:40:19;100760.66;;;30.41
34125;BMP280;20110;53.120;5.786;2022-09-09T11:42:49;100754.75;;;30.59
34125;BMP280;20110;53.120;5.786;2022-09-09T11:45:36;100747.25;;;30.60
34125;BMP280;20110;53.120;5.786;2022-09-09T11:48:04;100733.47;;;31.03
34125;BMP280;20110;53.120;5.786;2022-09-09T11:50:36;100729.63;;;31.27
34125;BMP280;20110;53.120;5.786;2022-09-09T11:53:23;100742.28;;;30.96
34125;BMP280;20110;53.120;5.786;2022-09-09T11:56:12;100749.59;;;29.95
34125;BMP280;20110;53.120;5.786;2022-09-09T11:58:43;100731.84;;;29.27
34125;BMP280;20110;53.120;5.786;2022-09-09T12:01:34;100713.88;;;28.58
34125;BMP280;20110;53.120;5.786;2022-09-09T12:04:16;100748.75;;;28.32
34125;BMP280;20110;53.120;5.786;2022-09-09T12:06:59;100742.16;;;27.89
34125;BMP280;20110;53.120;5.786;2022-09-09T12:09:50;100747.81;;;27.48
34125;BMP280;20110;53.120;5.786;2022-09-09T12:12:24;100746.53;;;27.51
34125;BMP280;20110;53.120;5.786;2022-09-09T12:17:31;100744.44;;;28.50
34125;BMP280;20110;53.120;5.786;2022-09-09T12:20:21;100750.69;;;28.83
34125;BMP280;20110;53.120;5.786;2022-09-09T12:23:18;100735.66;;;28.54
34125;BMP280;20110;53.120;5.786;2022-09-09T12:32:06;100729.59;;;28.58
34125;BMP280;20110;53.120;5.786;2022-09-09T12:34:54;100745.31;;;28.59
34125;BMP280;20110;53.120;5.786;2022-09-09T12:37:41;100736.19;;;28.48
34125;BMP280;20110;53.120;5.786;2022-09-09T12:42:46;100739.81;;;29.17
34125;BMP280;20110;53.120;5.786;2022-09-09T12:45:24;100746.50;;;29.41
34125;BMP280;20110;53.120;5.786;2022-09-09T12:48:08;100716.16;;;30.01
34125;BMP280;20110;53.120;5.786;2022-09-09T12:50:45;100717.97;;;30.28
34125;BMP280;20110;53.120;5.786;2022-09-09T12:53:29;100698.75;;;30.72
34125;BMP280;20110;53.120;5.786;2022-09-09T12:56:01;100719.09;;;30.55
34125;BMP280;20110;53.120;5.786;2022-09-09T12:58:30;100692.59;;;29.84
34125;BMP280;20110;53.120;5.786;2022-09-09T13:00:59;100712.41;;;29.82
34125;BMP280;20110;53.120;5.786;2022-09-09T13:03:27;100693.81;;;29.41
34125;BMP280;20110;53.120;5.786;2022-09-09T13:05:58;100718.47;;;29.09
34125;BMP280;20110;53.120;5.786;2022-09-09T13:08:26;100676.31;;;28.59
34125;BMP280;20110;53.120;5.786;2022-09-09T13:11:08;100725.75;;;28.69
34125;BMP280;20110;53.120;5.786;2022-09-09T13:13:41;100684.25;;;29.40
34125;BMP280;20110;53.120;5.786;2022-09-09T13:16:26;100720.53;;;29.78
34125;BMP280;20110;53.120;5.786;2022-09-09T13:18:53;100700.66;;;30.16
34125;BMP280;20110;53.120;5.786;2022-09-09T13:21:19;100690.22;;;29.68
34125;BMP280;20110;53.120;5.786;2022-09-09T13:23:50;100685.91;;;28.89
34125;BMP280;20110;53.120;5.786;2022-09-09T13:28:48;100695.16;;;27.93
34125;BMP280;20110;53.120;5.786;2022-09-09T13:31:33;100712.72;;;27.36
34125;BMP280;20110;53.120;5.786;2022-09-09T13:33:59;100693.47;;;26.65
34125;BMP280;20110;53.120;5.786;2022-09-09T13:36:35;100700.53;;;26.11
34125;BMP280;20110;53.120;5.786;2022-09-09T13:39:03;100721.16;;;26.18
34125;BMP280;20110;53.120;5.786;2022-09-09T13:41:32;100699.06;;;26.28
34125;BMP280;20110;53.120;5.786;2022-09-09T13:44:00;100706.50;;;26.47
34125;BMP280;20110;53.120;5.786;2022-09-09T13:46:42;100708.22;;;26.58
34125;BMP280;20110;53.120;5.786;2022-09-09T13:51:41;100696.03;;;26.81
34125;BMP280;20110;53.120;5.786;2022-09-09T13:54:12;100660.78;;;26.65
34125;BMP280;20110;53.120;5.786;2022-09-09T13:56:40;100671.16;;;26.49
34125;BMP280;20110;53.120;5.786;2022-09-09T13:59:11;100687.63;;;26.53
34125;BMP280;20110;53.120;5.786;2022-09-09T14:01:38;100688.47;;;26.57
34125;BMP280;20110;53.120;5.786;2022-09-09T14:04:04;100681.69;;;26.58
34125;BMP280;20110;53.120;5.786;2022-09-09T14:06:32;100696.19;;;26.65
34125;BMP280;20110;53.120;5.786;2022-09-09T14:09:00;100682.84;;;26.73
34125;BMP280;20110;53.120;5.786;2022-09-09T14:11:26;100672.59;;;27.17
34125;BMP280;20110;53.120;5.786;2022-09-09T14:13:52;100690.16;;;27.83
34125;BMP280;20110;53.120;5.786;2022-09-09T14:16:18;100704.56;;;28.39
34125;BMP280;20110;53.120;5.786;2022-09-09T14:18:45;100669.50;;;28.89
34125;BMP280;20110;53.120;5.786;2022-09-09T14:21:11;100677.81;;;29.27
34125;BMP280;20110;53.120;5.786;2022-09-09T14:23:38;100693.38;;;29.19
34125;BMP280;20110;53.120;5.786;2022-09-09T14:26:08;100677.19;;;28.65
34125;BMP280;20110;53.120;5.786;2022-09-09T14:28:36;100688.75;;;28.36
34125;BMP280;20110;53.120;5.786;2022-09-09T14:31:03;100641.13;;;27.87
34125;BMP280;20110;53.120;5.786;2022-09-09T14:33:30;100667.94;;;27.69
34125;BMP280;20110;53.120;5.786;2022-09-09T14:36:02;100677.59;;;27.25
34125;BMP280;20110;53.120;5.786;2022-09-09T14:38:35;100670.84;;;27.04
34125;BMP280;20110;53.120;5.786;2022-09-09T14:41:07;100691.25;;;27.03
34125;BMP280;20110;53.120;5.786;2022-09-09T14:43:33;100686.25;;;26.74
34125;BMP280;20110;53.120;5.786;2022-09-09T14:46:16;100694.72;;;26.40
34125;BMP280;20110;53.120;5.786;2022-09-09T14:48:42;100689.19;;;25.79
34125;BMP280;20110;53.120;5.786;2022-09-09T14:51:28;100712.41;;;25.09
34125;BMP280;20110;53.120;5.786;2022-09-09T14:53:59;100702.28;;;24.61
34125;BMP280;20110;53.120;5.786;2022-09-09T14:56:29;100706.44;;;24.46
34125;BMP280;20110;53.120;5.786;2022-09-09T14:58:58;100691.31;;;24.41
34125;BMP280;20110;53.120;5.786;2022-09-09T15:01:25;100713.94;;;24.63
34125;BMP280;20110;53.120;5.786;2022-09-09T15:04:03;100709.63;;;24.74
34125;BMP280;20110;53.120;5.786;2022-09-09T15:06:32;100710.22;;;24.72
34125;BMP280;20110;53.120;5.786;2022-09-09T15:08:59;100704.97;;;24.61
34125;BMP280;20110;53.120;5.786;2022-09-09T15:11:28;100685.25;;;24.43
34125;BMP280;20110;53.120;5.786;2022-09-09T15:13:56;100693.13;;;24.36
34125;BMP280;20110;53.120;5.786;2022-09-09T15:16:26;100711.72;;;24.11
34125;BMP280;20110;53.120;5.786;2022-09-09T15:18:56;100711.50;;;23.91
34125;BMP280;20110;53.120;5.786;2022-09-09T15:21:28;100708.16;;;23.77
34125;BMP280;20110;53.120;5.786;2022-09-09T15:23:56;100698.31;;;23.54
34125;BMP280;20110;53.120;5.786;2022-09-09T15:26:23;100714.66;;;23.56
34125;BMP280;20110;53.120;5.786;2022-09-09T15:28:49;100724.16;;;23.41
34125;BMP280;20110;53.120;5.786;2022-09-09T15:31:26;100697.41;;;23.20
34125;BMP280;20110;53.120;5.786;2022-09-09T15:33:57;100711.84;;;23.25
34125;BMP280;20110;53.120;5.786;2022-09-09T15:36:30;100692.56;;;23.19
34125;BMP280;20110;53.120;5.786;2022-09-09T15:38:58;100702.31;;;23.24
34125;BMP280;20110;53.120;5.786;2022-09-09T15:41:25;100708.94;;;23.34
34125;BMP280;20110;53.120;5.786;2022-09-09T15:43:53;100702.34;;;23.39
34125;BMP280;20110;53.120;5.786;2022-09-09T15:46:32;100683.53;;;23.28
34125;BMP280;20110;53.120;5.786;2022-09-09T15:49:14;100699.53;;;23.51
34125;BMP280;20110;53.120;5.786;2022-09-09T15:51:43;100685.16;;;23.48
34125;BMP280;20110;53.120;5.786;2022-09-09T15:54:17;100684.03;;;23.54
34125;BMP280;20110;53.120;5.786;2022-09-09T15:56:46;100682.84;;;23.57
34125;BMP280;20110;53.120;5.786;2022-09-09T15:59:14;100684.31;;;23.60
34125;BMP280;20110;53.120;5.786;2022-09-09T16:01:40;100713.50;;;23.75
34125;BMP280;20110;53.120;5.786;2022-09-09T16:04:08;100698.34;;;23.70
34125;BMP280;20110;53.120;5.786;2022-09-09T16:06:34;100692.97;;;23.56
34125;BMP280;20110;53.120;5.786;2022-09-09T16:09:01;100674.16;;;23.44
34125;BMP280;20110;53.120;5.786;2022-09-09T16:11:35;100702.22;;;23.65
34125;BMP280;20110;53.120;5.786;2022-09-09T16:14:01;100698.44;;;23.72
34125;BMP280;20110;53.120;5.786;2022-09-09T16:16:30;100701.16;;;23.72
34125;BMP280;20110;53.120;5.786;2022-09-09T16:19:06;100696.34;;;23.70
34125;BMP280;20110;53.120;5.786;2022-09-09T16:21:48;100691.94;;;23.63
34125;BMP280;20110;53.120;5.786;2022-09-09T16:24:17;100698.03;;;23.77
34125;BMP280;20110;53.120;5.786;2022-09-09T16:26:47;100693.31;;;23.78
34125;BMP280;20110;53.120;5.786;2022-09-09T16:29:15;100703.28;;;23.89
34125;BMP280;20110;53.120;5.786;2022-09-09T16:31:43;100706.94;;;23.96
34125;BMP280;20110;53.120;5.786;2022-09-09T16:34:10;100693.91;;;23.92
34125;BMP280;20110;53.120;5.786;2022-09-09T16:36:38;100675.63;;;23.92
34125;BMP280;20110;53.120;5.786;2022-09-09T16:39:08;100707.75;;;24.14
34125;BMP280;20110;53.120;5.786;2022-09-09T16:41:35;100707.44;;;24.21
34125;BMP280;20110;53.120;5.786;2022-09-09T16:44:05;100708.09;;;24.22
34125;BMP280;20110;53.120;5.786;2022-09-09T16:46:35;100707.66;;;24.27
34125;BMP280;20110;53.120;5.786;2022-09-09T16:49:04;100709.59;;;24.09
34125;BMP280;20110;53.120;5.786;2022-09-09T16:51:40;100698.19;;;23.81
34125;BMP280;20110;53.120;5.786;2022-09-09T16:54:08;100706.78;;;23.46
34125;BMP280;20110;53.120;5.786;2022-09-09T16:56:39;100707.53;;;23.20
34125;BMP280;20110;53.120;5.786;2022-09-09T16:59:16;100694.34;;;22.85
34125;BMP280;20110;53.120;5.786;2022-09-09T17:01:44;100710.78;;;22.89
34125;BMP280;20110;53.120;5.786;2022-09-09T17:04:14;100710.09;;;22.75
34125;BMP280;20110;53.120;5.786;2022-09-09T17:06:42;100705.25;;;22.59
34125;BMP280;20110;53.120;5.786;2022-09-09T17:09:11;100728.44;;;22.76
34125;BMP280;20110;53.120;5.786;2022-09-09T17:11:39;100719.59;;;22.76
34125;BMP280;20110;53.120;5.786;2022-09-09T17:14:07;100720.00;;;22.70
34125;BMP280;20110;53.120;5.786;2022-09-09T17:16:34;100724.13;;;22.71
34125;BMP280;20110;53.120;5.786;2022-09-09T17:19:01;100736.88;;;22.82
34125;BMP280;20110;53.120;5.786;2022-09-09T17:21:30;100708.88;;;22.64
34125;BMP280;20110;53.120;5.786;2022-09-09T17:23:57;100719.41;;;22.85
34125;BMP280;20110;53.120;5.786;2022-09-09T17:26:28;100719.31;;;22.83